sensor_id;sensor_type;location;lat;lon;timestamp;P1;durP1;ratioP1;P2;durP2;ratioP2
71106;SDS011;58763;47.982;11.516;2022-07-10T00:00:34;3.65;;;1.92;;
71106;SDS011;58763;47.982;11.516;2022-07-10T00:03:01;5.10;;;2.05;;
71106;SDS011;58763;47.982;11.516;2022-07-10T00:05:26;3.47;;;1.63;;
71106;SDS011;58763;47.982;11.516;2022-07-10T00:07:52;5.50;;;2.20;;
71106;SDS011;58763;47.982;11.516;2022-07-10T00:10:18;4.25;;;2.00;;
71106;SDS011;58763;47.982;11.516;2022-07-10T00:12:44;4.32;;;2.00;;
71106;SDS011;58763;47.982;11.516;2022-07-10T00:15:11;3.70;;;2.17;;
71106;SDS011;58763;47.982;11.516;2022-07-10T00:17:38;3.20;;;1.95;;
71106;SDS011;58763;47.982;11.516;2022-07-10T00:20:04;3.50;;;1.80;;
71106;SDS011;58763;47.982;11.516;2022-07-10T00:22:33;4.40;;;2.17;;
71106;SDS011;58763;47.982;11.516;2022-07-10T00:25:00;4.85;;;1.83;;
71106;SDS011;58763;47.982;11.516;2022-07-10T00:27:26;4.53;;;2.10;;
71106;SDS011;58763;47.982;11.516;2022-07-10T00:29:51;3.90;;;2.13;;
71106;SDS011;58763;47.982;11.516;2022-07-10T00:32:17;4.22;;;2.35;;
71106;SDS011;58763;47.982;11.516;2022-07-10T00:34:42;5.20;;;2.42;;
71106;SDS011;58763;47.982;11.516;2022-07-10T00:37:07;4.85;;;2.40;;
71106;SDS011;58763;47.982;11.516;2022-07-10T00:39:33;4.85;;;2.17;;
71106;SDS011;58763;47.982;11.516;2022-07-10T00:42:05;5.25;;;2.50;;
71106;SDS011;58763;47.982;11.516;2022-07-10T00:44:35;4.63;;;2.40;;
71106;SDS011;58763;47.982;11.516;2022-07-10T00:47:05;7.72;;;2.80;;
71106;SDS011;58763;47.982;11.516;2022-07-10T00:49:32;4.95;;;2.58;;
71106;SDS011;58763;47.982;11.516;2022-07-10T00:51:59;6.15;;;2.80;;
71106;SDS011;58763;47.982;11.516;2022-07-10T00:54:26;6.80;;;3.20;;
71106;SDS011;58763;47.982;11.516;2022-07-10T00:56:53;5.40;;;3.58;;
71106;SDS011;58763;47.982;11.516;2022-07-10T00:59:19;5.18;;;3.50;;
71106;SDS011;58763;47.982;11.516;2022-07-10T01:01:46;6.47;;;3.72;;
71106;SDS011;58763;47.982;11.516;2022-07-10T01:04:13;5.97;;;3.53;;
71106;SDS011;58763;47.982;11.516;2022-07-10T01:06:38;6.40;;;3.65;;
71106;SDS011;58763;47.982;11.516;2022-07-10T01:09:04;7.40;;;3.80;;
71106;SDS011;58763;47.982;11.516;2022-07-10T01:11:30;6.18;;;4.20;;
71106;SDS011;58763;47.982;11.516;2022-07-10T01:13:58;6.75;;;4.18;;
71106;SDS011;58763;47.982;11.516;2022-07-10T01:16:23;7.00;;;3.90;;
71106;SDS011;58763;47.982;11.516;2022-07-10T01:18:49;5.03;;;4.03;;
71106;SDS011;58763;47.982;11.516;2022-07-10T01:21:27;6.75;;;4.38;;
71106;SDS011;58763;47.982;11.516;2022-07-10T01:23:54;4.90;;;3.70;;
71106;SDS011;58763;47.982;11.516;2022-07-10T01:26:20;7.85;;;3.88;;
71106;SDS011;58763;47.982;11.516;2022-07-10T01:28:48;6.38;;;4.22;;
71106;SDS011;58763;47.982;11.516;2022-07-10T01:31:18;6.57;;;3.92;;
71106;SDS011;58763;47.982;11.516;2022-07-10T01:33:53;6.40;;;4.13;;
71106;SDS011;58763;47.982;11.516;2022-07-10T01:36:19;6.93;;;4.32;;
71106;SDS011;58763;47.982;11.516;2022-07-10T01:38:46;7.80;;;4.40;;
71106;SDS011;58763;47.982;11.516;2022-07-10T01:41:12;8.05;;;3.53;;
71106;SDS011;58763;47.982;11.516;2022-07-10T01:43:37;6.07;;;3.90;;
71106;SDS011;58763;47.982;11.516;2022-07-10T01:46:07;5.93;;;4.28;;
71106;SDS011;58763;47.982;11.516;2022-07-10T01:48:33;10.27;;;4.00;;
71106;SDS011;58763;47.982;11.516;2022-07-10T01:50:58;6.05;;;3.95;;
71106;SDS011;58763;47.982;11.516;2022-07-10T01:53:23;7.70;;;4.30;;
71106;SDS011;58763;47.982;11.516;2022-07-10T01:55:49;6.60;;;4.00;;
71106;SDS011;58763;47.982;11.516;2022-07-10T01:58:15;6.00;;;4.13;;
71106;SDS011;58763;47.982;11.516;2022-07-10T02:00:40;5.80;;;4.13;;
71106;SDS011;58763;47.982;11.516;2022-07-10T02:03:05;5.90;;;4.18;;
71106;SDS011;58763;47.982;11.516;2022-07-10T02:05:49;5.55;;;4.00;;
71106;SDS011;58763;47.982;11.516;2022-07-10T02:08:15;8.05;;;4.38;;
71106;SDS011;58763;47.982;11.516;2022-07-10T02:10:40;6.72;;;4.68;;
71106;SDS011;58763;47.982;11.516;2022-07-10T02:13:06;8.05;;;4.28;;
71106;SDS011;58763;47.982;11.516;2022-07-10T02:15:31;6.13;;;4.32;;
71106;SDS011;58763;47.982;11.516;2022-07-10T02:17:57;5.55;;;3.70;;
71106;SDS011;58763;47.982;11.516;2022-07-10T02:20:22;5.93;;;3.47;;
71106;SDS011;58763;47.982;11.516;2022-07-10T02:22:47;6.10;;;3.70;;
71106;SDS011;58763;47.982;11.516;2022-07-10T02:25:13;8.50;;;4.45;;
71106;SDS011;58763;47.982;11.516;2022-07-10T02:27:38;5.90;;;4.07;;
71106;SDS011;58763;47.982;11.516;2022-07-10T02:30:04;7.70;;;4.13;;
71106;SDS011;58763;47.982;11.516;2022-07-10T02:32:30;7.20;;;4.25;;
71106;SDS011;58763;47.982;11.516;2022-07-10T02:34:55;5.80;;;4.10;;
71106;SDS011;58763;47.982;11.516;2022-07-10T02:37:21;6.72;;;4.15;;
71106;SDS011;58763;47.982;11.516;2022-07-10T02:39:46;6.22;;;4.53;;
71106;SDS011;58763;47.982;11.516;2022-07-10T02:42:12;5.72;;;4.25;;
71106;SDS011;58763;47.982;11.516;2022-07-10T02:44:37;6.18;;;4.25;;
71106;SDS011;58763;47.982;11.516;2022-07-10T02:47:02;7.22;;;4.60;;
71106;SDS011;58763;47.982;11.516;2022-07-10T02:49:28;6.78;;;4.70;;
71106;SDS011;58763;47.982;11.516;2022-07-10T02:51:53;6.30;;;4.40;;
71106;SDS011;58763;47.982;11.516;2022-07-10T02:54:19;5.75;;;4.32;;
71106;SDS011;58763;47.982;11.516;2022-07-10T02:56:44;6.70;;;4.60;;
71106;SDS011;58763;47.982;11.516;2022-07-10T02:59:09;6.47;;;4.20;;
71106;SDS011;58763;47.982;11.516;2022-07-10T03:01:35;6.70;;;4.05;;
71106;SDS011;58763;47.982;11.516;2022-07-10T03:04:00;5.50;;;3.83;;
71106;SDS011;58763;47.982;11.516;2022-07-10T03:06:26;8.77;;;4.50;;
71106;SDS011;58763;47.982;11.516;2022-07-10T03:08:52;6.22;;;4.25;;
71106;SDS011;58763;47.982;11.516;2022-07-10T03:11:17;7.40;;;4.43;;
71106;SDS011;58763;47.982;11.516;2022-07-10T03:13:42;7.20;;;4.45;;
71106;SDS011;58763;47.982;11.516;2022-07-10T03:16:08;6.78;;;4.18;;
71106;SDS011;58763;47.982;11.516;2022-07-10T03:18:33;6.40;;;4.47;;
71106;SDS011;58763;47.982;11.516;2022-07-10T03:20:59;7.70;;;4.75;;
71106;SDS011;58763;47.982;11.516;2022-07-10T03:23:24;6.70;;;5.20;;
71106;SDS011;58763;47.982;11.516;2022-07-10T03:25:50;7.18;;;5.18;;
71106;SDS011;58763;47.982;11.516;2022-07-10T03:28:16;7.53;;;4.75;;
71106;SDS011;58763;47.982;11.516;2022-07-10T03:30:42;6.47;;;4.90;;
71106;SDS011;58763;47.982;11.516;2022-07-10T03:33:07;6.97;;;5.10;;
71106;SDS011;58763;47.982;11.516;2022-07-10T03:35:33;7.63;;;4.97;;
71106;SDS011;58763;47.982;11.516;2022-07-10T03:37:58;8.63;;;5.78;;
71106;SDS011;58763;47.982;11.516;2022-07-10T03:40:23;7.13;;;5.63;;
71106;SDS011;58763;47.982;11.516;2022-07-10T03:42:50;9.02;;;5.35;;
71106;SDS011;58763;47.982;11.516;2022-07-10T03:45:16;6.70;;;5.40;;
71106;SDS011;58763;47.982;11.516;2022-07-10T03:47:41;6.90;;;5.10;;
71106;SDS011;58763;47.982;11.516;2022-07-10T03:50:07;6.93;;;5.60;;
71106;SDS011;58763;47.982;11.516;2022-07-10T03:52:32;7.50;;;5.63;;
71106;SDS011;58763;47.982;11.516;2022-07-10T03:54:58;7.22;;;5.70;;
71106;SDS011;58763;47.982;11.516;2022-07-10T03:57:23;7.25;;;5.63;;
71106;SDS011;58763;47.982;11.516;2022-07-10T04:00:07;7.38;;;5.75;;
71106;SDS011;58763;47.982;11.516;2022-07-10T04:02:33;7.75;;;6.05;;
71106;SDS011;58763;47.982;11.516;2022-07-10T04:04:59;7.78;;;6.07;;
71106;SDS011;58763;47.982;11.516;2022-07-10T04:07:24;7.35;;;5.70;;
71106;SDS011;58763;47.982;11.516;2022-07-10T04:09:50;7.55;;;5.72;;
71106;SDS011;58763;47.982;11.516;2022-07-10T04:12:15;7.82;;;5.57;;
71106;SDS011;58763;47.982;11.516;2022-07-10T04:14:40;7.93;;;5.63;;
71106;SDS011;58763;47.982;11.516;2022-07-10T04:17:06;8.95;;;6.05;;
71106;SDS011;58763;47.982;11.516;2022-07-10T04:19:32;9.65;;;6.03;;
71106;SDS011;58763;47.982;11.516;2022-07-10T04:21:57;8.63;;;6.07;;
71106;SDS011;58763;47.982;11.516;2022-07-10T04:24:22;7.68;;;5.40;;
71106;SDS011;58763;47.982;11.516;2022-07-10T04:26:48;8.07;;;5.15;;
71106;SDS011;58763;47.982;11.516;2022-07-10T04:29:13;7.05;;;5.53;;
71106;SDS011;58763;47.982;11.516;2022-07-10T04:31:39;7.50;;;5.38;;
71106;SDS011;58763;47.982;11.516;2022-07-10T04:34:04;9.95;;;6.22;;
71106;SDS011;58763;47.982;11.516;2022-07-10T04:36:29;9.38;;;6.30;;
71106;SDS011;58763;47.982;11.516;2022-07-10T04:38:55;10.13;;;6.10;;
71106;SDS011;58763;47.982;11.516;2022-07-10T04:41:21;8.57;;;6.10;;
71106;SDS011;58763;47.982;11.516;2022-07-10T04:43:46;8.73;;;6.05;;
71106;SDS011;58763;47.982;11.516;2022-07-10T04:46:11;8.43;;;5.72;;
71106;SDS011;58763;47.982;11.516;2022-07-10T04:48:37;9.70;;;6.15;;
71106;SDS011;58763;47.982;11.516;2022-07-10T04:51:02;7.53;;;5.78;;
71106;SDS011;58763;47.982;11.516;2022-07-10T04:53:28;7.55;;;5.65;;
71106;SDS011;58763;47.982;11.516;2022-07-10T04:55:53;7.80;;;5.72;;
71106;SDS011;58763;47.982;11.516;2022-07-10T04:58:19;8.73;;;6.07;;
71106;SDS011;58763;47.982;11.516;2022-07-10T05:00:44;8.77;;;6.18;;
71106;SDS011;58763;47.982;11.516;2022-07-10T05:03:10;6.60;;;5.18;;
71106;SDS011;58763;47.982;11.516;2022-07-10T05:05:35;7.97;;;5.93;;
71106;SDS011;58763;47.982;11.516;2022-07-10T05:08:00;8.15;;;6.25;;
71106;SDS011;58763;47.982;11.516;2022-07-10T05:10:26;8.32;;;6.13;;
71106;SDS011;58763;47.982;11.516;2022-07-10T05:12:52;7.32;;;5.88;;
71106;SDS011;58763;47.982;11.516;2022-07-10T05:15:17;7.25;;;5.97;;
71106;SDS011;58763;47.982;11.516;2022-07-10T05:17:43;8.23;;;5.97;;
71106;SDS011;58763;47.982;11.516;2022-07-10T05:20:09;8.63;;;5.93;;
71106;SDS011;58763;47.982;11.516;2022-07-10T05:22:35;8.55;;;5.78;;
71106;SDS011;58763;47.982;11.516;2022-07-10T05:25:00;9.35;;;6.18;;
71106;SDS011;58763;47.982;11.516;2022-07-10T05:27:26;8.38;;;6.25;;
71106;SDS011;58763;47.982;11.516;2022-07-10T05:29:52;7.03;;;5.30;;
71106;SDS011;58763;47.982;11.516;2022-07-10T05:32:17;8.50;;;6.43;;
71106;SDS011;58763;47.982;11.516;2022-07-10T05:34:43;8.80;;;5.85;;
71106;SDS011;58763;47.982;11.516;2022-07-10T05:37:08;8.35;;;5.75;;
71106;SDS011;58763;47.982;11.516;2022-07-10T05:39:34;8.63;;;5.97;;
71106;SDS011;58763;47.982;11.516;2022-07-10T05:41:59;7.72;;;6.07;;
71106;SDS011;58763;47.982;11.516;2022-07-10T05:44:25;7.60;;;5.57;;
71106;SDS011;58763;47.982;11.516;2022-07-10T05:46:50;9.75;;;6.28;;
71106;SDS011;58763;47.982;11.516;2022-07-10T05:49:16;9.95;;;6.65;;
71106;SDS011;58763;47.982;11.516;2022-07-10T05:51:41;7.80;;;6.50;;
71106;SDS011;58763;47.982;11.516;2022-07-10T05:54:07;9.48;;;7.13;;
71106;SDS011;58763;47.982;11.516;2022-07-10T05:56:33;9.38;;;6.65;;
71106;SDS011;58763;47.982;11.516;2022-07-10T05:58:59;8.95;;;7.40;;
71106;SDS011;58763;47.982;11.516;2022-07-10T06:01:25;10.35;;;7.22;;
71106;SDS011;58763;47.982;11.516;2022-07-10T06:03:51;9.75;;;7.35;;
71106;SDS011;58763;47.982;11.516;2022-07-10T06:06:16;9.98;;;7.38;;
71106;SDS011;58763;47.982;11.516;2022-07-10T06:08:42;9.38;;;6.60;;
71106;SDS011;58763;47.982;11.516;2022-07-10T06:11:09;10.40;;;7.22;;
71106;SDS011;58763;47.982;11.516;2022-07-10T06:13:35;10.05;;;7.57;;
71106;SDS011;58763;47.982;11.516;2022-07-10T06:16:02;9.20;;;7.07;;
71106;SDS011;58763;47.982;11.516;2022-07-10T06:18:29;12.50;;;8.05;;
71106;SDS011;58763;47.982;11.516;2022-07-10T06:20:54;11.32;;;8.18;;
71106;SDS011;58763;47.982;11.516;2022-07-10T06:23:20;12.50;;;7.93;;
71106;SDS011;58763;47.982;11.516;2022-07-10T06:25:45;11.55;;;8.30;;
71106;SDS011;58763;47.982;11.516;2022-07-10T06:28:11;11.50;;;8.55;;
71106;SDS011;58763;47.982;11.516;2022-07-10T06:30:36;12.38;;;8.70;;
71106;SDS011;58763;47.982;11.516;2022-07-10T06:33:01;11.60;;;8.00;;
71106;SDS011;58763;47.982;11.516;2022-07-10T06:35:27;10.98;;;7.97;;
71106;SDS011;58763;47.982;11.516;2022-07-10T06:37:52;11.23;;;8.30;;
71106;SDS011;58763;47.982;11.516;2022-07-10T06:40:19;12.65;;;8.88;;
71106;SDS011;58763;47.982;11.516;2022-07-10T06:42:45;11.23;;;7.95;;
71106;SDS011;58763;47.982;11.516;2022-07-10T06:45:11;10.35;;;7.47;;
71106;SDS011;58763;47.982;11.516;2022-07-10T06:47:36;10.18;;;8.02;;
71106;SDS011;58763;47.982;11.516;2022-07-10T06:50:20;10.02;;;7.40;;
71106;SDS011;58763;47.982;11.516;2022-07-10T06:52:46;10.73;;;7.57;;
71106;SDS011;58763;47.982;11.516;2022-07-10T06:55:12;11.93;;;7.97;;
71106;SDS011;58763;47.982;11.516;2022-07-10T06:57:38;10.13;;;7.50;;
71106;SDS011;58763;47.982;11.516;2022-07-10T07:00:05;8.75;;;7.22;;
71106;SDS011;58763;47.982;11.516;2022-07-10T07:02:31;9.70;;;7.65;;
71106;SDS011;58763;47.982;11.516;2022-07-10T07:04:57;9.40;;;7.22;;
71106;SDS011;58763;47.982;11.516;2022-07-10T07:07:22;11.65;;;7.90;;
71106;SDS011;58763;47.982;11.516;2022-07-10T07:09:47;9.90;;;7.32;;
71106;SDS011;58763;47.982;11.516;2022-07-10T07:12:15;9.90;;;7.15;;
71106;SDS011;58763;47.982;11.516;2022-07-10T07:14:42;9.00;;;7.10;;
71106;SDS011;58763;47.982;11.516;2022-07-10T07:17:07;10.52;;;7.65;;
71106;SDS011;58763;47.982;11.516;2022-07-10T07:19:37;11.45;;;7.80;;
71106;SDS011;58763;47.982;11.516;2022-07-10T07:22:22;9.95;;;7.57;;
71106;SDS011;58763;47.982;11.516;2022-07-10T07:25:07;9.30;;;7.40;;
71106;SDS011;58763;47.982;11.516;2022-07-10T07:27:34;11.48;;;7.03;;
71106;SDS011;58763;47.982;11.516;2022-07-10T07:30:02;9.18;;;7.50;;
71106;SDS011;58763;47.982;11.516;2022-07-10T07:32:41;8.60;;;6.65;;
71106;SDS011;58763;47.982;11.516;2022-07-10T07:35:08;10.05;;;6.90;;
71106;SDS011;58763;47.982;11.516;2022-07-10T07:37:38;7.97;;;6.13;;
71106;SDS011;58763;47.982;11.516;2022-07-10T07:40:05;8.30;;;6.88;;
71106;SDS011;58763;47.982;11.516;2022-07-10T07:42:31;10.57;;;6.50;;
71106;SDS011;58763;47.982;11.516;2022-07-10T07:44:57;7.72;;;6.00;;
71106;SDS011;58763;47.982;11.516;2022-07-10T07:47:22;8.00;;;5.82;;
71106;SDS011;58763;47.982;11.516;2022-07-10T07:49:48;12.45;;;6.70;;
71106;SDS011;58763;47.982;11.516;2022-07-10T07:52:13;9.27;;;6.40;;
71106;SDS011;58763;47.982;11.516;2022-07-10T07:54:39;10.15;;;6.28;;
71106;SDS011;58763;47.982;11.516;2022-07-10T07:57:07;7.80;;;6.40;;
71106;SDS011;58763;47.982;11.516;2022-07-10T07:59:33;11.48;;;7.20;;
71106;SDS011;58763;47.982;11.516;2022-07-10T08:01:59;10.35;;;7.55;;
71106;SDS011;58763;47.982;11.516;2022-07-10T08:04:26;10.20;;;6.95;;
71106;SDS011;58763;47.982;11.516;2022-07-10T08:06:51;10.48;;;7.57;;
71106;SDS011;58763;47.982;11.516;2022-07-10T08:09:19;10.43;;;7.57;;
71106;SDS011;58763;47.982;11.516;2022-07-10T08:11:45;8.30;;;6.28;;
71106;SDS011;58763;47.982;11.516;2022-07-10T08:14:11;9.43;;;6.93;;
71106;SDS011;58763;47.982;11.516;2022-07-10T08:16:37;9.23;;;7.03;;
71106;SDS011;58763;47.982;11.516;2022-07-10T08:19:02;8.77;;;6.38;;
71106;SDS011;58763;47.982;11.516;2022-07-10T08:21:28;9.73;;;6.22;;
71106;SDS011;58763;47.982;11.516;2022-07-10T08:23:53;8.93;;;6.00;;
71106;SDS011;58763;47.982;11.516;2022-07-10T08:26:19;7.38;;;6.10;;
71106;SDS011;58763;47.982;11.516;2022-07-10T08:28:44;7.30;;;5.72;;
71106;SDS011;58763;47.982;11.516;2022-07-10T08:31:10;7.95;;;5.93;;
71106;SDS011;58763;47.982;11.516;2022-07-10T08:33:36;7.03;;;5.32;;
71106;SDS011;58763;47.982;11.516;2022-07-10T08:36:01;6.35;;;5.03;;
71106;SDS011;58763;47.982;11.516;2022-07-10T08:38:27;7.97;;;5.72;;
71106;SDS011;58763;47.982;11.516;2022-07-10T08:40:53;6.80;;;5.07;;
71106;SDS011;58763;47.982;11.516;2022-07-10T08:43:22;8.33;;;5.10;;
71106;SDS011;58763;47.982;11.516;2022-07-10T08:45:51;9.27;;;5.13;;
71106;SDS011;58763;47.982;11.516;2022-07-10T08:48:21;6.60;;;3.38;;
71106;SDS011;58763;47.982;11.516;2022-07-10T08:50:51;6.60;;;3.72;;
71106;SDS011;58763;47.982;11.516;2022-07-10T08:53:23;5.40;;;3.53;;
71106;SDS011;58763;47.982;11.516;2022-07-10T08:55:56;5.97;;;3.63;;
71106;SDS011;58763;47.982;11.516;2022-07-10T08:58:23;5.57;;;3.40;;
71106;SDS011;58763;47.982;11.516;2022-07-10T09:00:49;6.80;;;3.20;;
71106;SDS011;58763;47.982;11.516;2022-07-10T09:03:15;6.57;;;3.33;;
71106;SDS011;58763;47.982;11.516;2022-07-10T09:05:40;6.22;;;3.30;;
71106;SDS011;58763;47.982;11.516;2022-07-10T09:08:25;8.05;;;3.15;;
71106;SDS011;58763;47.982;11.516;2022-07-10T09:11:16;5.35;;;3.10;;
71106;SDS011;58763;47.982;11.516;2022-07-10T09:13:50;4.88;;;2.88;;
71106;SDS011;58763;47.982;11.516;2022-07-10T09:16:26;6.45;;;2.97;;
71106;SDS011;58763;47.982;11.516;2022-07-10T09:18:56;5.23;;;2.50;;
71106;SDS011;58763;47.982;11.516;2022-07-10T09:21:22;4.63;;;2.70;;
71106;SDS011;58763;47.982;11.516;2022-07-10T09:23:48;4.47;;;2.60;;
71106;SDS011;58763;47.982;11.516;2022-07-10T09:26:14;4.63;;;2.75;;
71106;SDS011;58763;47.982;11.516;2022-07-10T09:28:40;5.25;;;2.70;;
71106;SDS011;58763;47.982;11.516;2022-07-10T09:31:05;5.90;;;2.53;;
71106;SDS011;58763;47.982;11.516;2022-07-10T09:33:31;6.13;;;2.70;;
71106;SDS011;58763;47.982;11.516;2022-07-10T09:35:59;5.03;;;2.28;;
71106;SDS011;58763;47.982;11.516;2022-07-10T09:41:14;4.60;;;2.80;;
71106;SDS011;58763;47.982;11.516;2022-07-10T09:43:50;5.60;;;2.72;;
71106;SDS011;58763;47.982;11.516;2022-07-10T09:46:21;8.77;;;2.97;;
71106;SDS011;58763;47.982;11.516;2022-07-10T09:49:00;4.53;;;2.67;;
71106;SDS011;58763;47.982;11.516;2022-07-10T09:51:42;4.63;;;2.55;;
71106;SDS011;58763;47.982;11.516;2022-07-10T09:54:08;5.97;;;2.42;;
71106;SDS011;58763;47.982;11.516;2022-07-10T09:59:08;4.47;;;2.40;;
71106;SDS011;58763;47.982;11.516;2022-07-10T10:01:36;5.00;;;2.45;;
71106;SDS011;58763;47.982;11.516;2022-07-10T10:04:05;5.10;;;2.10;;
71106;SDS011;58763;47.982;11.516;2022-07-10T10:06:31;4.68;;;1.92;;
71106;SDS011;58763;47.982;11.516;2022-07-10T10:09:06;4.10;;;2.00;;
71106;SDS011;58763;47.982;11.516;2022-07-10T10:11:36;5.20;;;2.20;;
71106;SDS011;58763;47.982;11.516;2022-07-10T10:14:06;6.45;;;2.03;;
71106;SDS011;58763;47.982;11.516;2022-07-10T10:16:32;4.75;;;2.13;;
71106;SDS011;58763;47.982;11.516;2022-07-10T10:18:59;4.57;;;2.00;;
71106;SDS011;58763;47.982;11.516;2022-07-10T10:21:45;3.95;;;1.92;;
71106;SDS011;58763;47.982;11.516;2022-07-10T10:24:11;6.32;;;2.22;;
71106;SDS011;58763;47.982;11.516;2022-07-10T10:26:38;4.05;;;1.77;;
71106;SDS011;58763;47.982;11.516;2022-07-10T10:29:05;3.22;;;1.50;;
71106;SDS011;58763;47.982;11.516;2022-07-10T10:31:31;5.60;;;1.90;;
71106;SDS011;58763;47.982;11.516;2022-07-10T10:33:58;4.97;;;1.90;;
71106;SDS011;58763;47.982;11.516;2022-07-10T10:36:42;3.28;;;1.65;;
71106;SDS011;58763;47.982;11.516;2022-07-10T10:39:15;3.92;;;1.85;;
71106;SDS011;58763;47.982;11.516;2022-07-10T10:42:21;3.83;;;1.85;;
71106;SDS011;58763;47.982;11.516;2022-07-10T10:45:21;4.50;;;1.95;;
71106;SDS011;58763;47.982;11.516;2022-07-10T10:48:08;5.43;;;1.52;;
71106;SDS011;58763;47.982;11.516;2022-07-10T10:50:48;4.18;;;1.77;;
71106;SDS011;58763;47.982;11.516;2022-07-10T10:53:20;7.78;;;2.00;;
71106;SDS011;58763;47.982;11.516;2022-07-10T10:58:50;3.53;;;1.83;;
71106;SDS011;58763;47.982;11.516;2022-07-10T11:06:39;3.78;;;1.88;;
71106;SDS011;58763;47.982;11.516;2022-07-10T11:09:28;2.70;;;1.60;;
71106;SDS011;58763;47.982;11.516;2022-07-10T11:12:02;3.63;;;1.55;;
71106;SDS011;58763;47.982;11.516;2022-07-10T11:14:28;4.22;;;1.90;;
71106;SDS011;58763;47.982;11.516;2022-07-10T11:16:55;4.38;;;1.52;;
71106;SDS011;58763;47.982;11.516;2022-07-10T11:19:25;4.90;;;1.52;;
71106;SDS011;58763;47.982;11.516;2022-07-10T11:22:19;3.13;;;1.42;;
71106;SDS011;58763;47.982;11.516;2022-07-10T11:28:15;4.82;;;1.75;;
71106;SDS011;58763;47.982;11.516;2022-07-10T11:30:54;5.32;;;1.60;;
71106;SDS011;58763;47.982;11.516;2022-07-10T11:33:20;3.40;;;1.60;;
71106;SDS011;58763;47.982;11.516;2022-07-10T11:35:49;5.07;;;1.58;;
71106;SDS011;58763;47.982;11.516;2022-07-10T11:38:18;2.88;;;1.48;;
71106;SDS011;58763;47.982;11.516;2022-07-10T11:40:47;3.00;;;1.70;;
71106;SDS011;58763;47.982;11.516;2022-07-10T11:43:13;3.28;;;1.45;;
71106;SDS011;58763;47.982;11.516;2022-07-10T11:45:47;4.32;;;1.85;;
71106;SDS011;58763;47.982;11.516;2022-07-10T11:48:16;2.55;;;1.30;;
71106;SDS011;58763;47.982;11.516;2022-07-10T11:50:43;3.33;;;1.40;;
71106;SDS011;58763;47.982;11.516;2022-07-10T11:53:09;5.07;;;1.40;;
71106;SDS011;58763;47.982;11.516;2022-07-10T11:55:35;5.20;;;1.88;;
71106;SDS011;58763;47.982;11.516;2022-07-10T11:58:15;4.50;;;1.75;;
71106;SDS011;58763;47.982;11.516;2022-07-10T12:00:42;5.55;;;1.70;;
71106;SDS011;58763;47.982;11.516;2022-07-10T12:03:15;4.07;;;1.70;;
71106;SDS011;58763;47.982;11.516;2022-07-10T12:05:43;4.68;;;1.73;;
71106;SDS011;58763;47.982;11.516;2022-07-10T12:08:08;3.03;;;1.60;;
71106;SDS011;58763;47.982;11.516;2022-07-10T12:10:34;4.20;;;1.80;;
71106;SDS011;58763;47.982;11.516;2022-07-10T12:13:06;6.10;;;1.90;;
71106;SDS011;58763;47.982;11.516;2022-07-10T12:15:36;5.80;;;1.80;;
71106;SDS011;58763;47.982;11.516;2022-07-10T12:18:04;3.97;;;1.55;;
71106;SDS011;58763;47.982;11.516;2022-07-10T12:20:33;4.70;;;1.60;;
71106;SDS011;58763;47.982;11.516;2022-07-10T12:22:59;3.42;;;1.48;;
71106;SDS011;58763;47.982;11.516;2022-07-10T12:25:25;3.28;;;1.20;;
71106;SDS011;58763;47.982;11.516;2022-07-10T12:27:57;2.72;;;1.17;;
71106;SDS011;58763;47.982;11.516;2022-07-10T12:30:35;2.83;;;1.17;;
71106;SDS011;58763;47.982;11.516;2022-07-10T12:33:08;3.35;;;1.45;;
71106;SDS011;58763;47.982;11.516;2022-07-10T12:36:00;4.68;;;1.50;;
71106;SDS011;58763;47.982;11.516;2022-07-10T12:38:29;4.45;;;1.33;;
71106;SDS011;58763;47.982;11.516;2022-07-10T12:41:08;6.97;;;1.50;;
71106;SDS011;58763;47.982;11.516;2022-07-10T12:43:35;3.38;;;1.35;;
71106;SDS011;58763;47.982;11.516;2022-07-10T12:48:36;3.33;;;1.30;;
71106;SDS011;58763;47.982;11.516;2022-07-10T12:53:51;3.17;;;1.30;;
71106;SDS011;58763;47.982;11.516;2022-07-10T12:56:30;4.00;;;1.40;;
71106;SDS011;58763;47.982;11.516;2022-07-10T12:59:04;3.47;;;1.33;;
71106;SDS011;58763;47.982;11.516;2022-07-10T13:01:42;3.03;;;1.30;;
71106;SDS011;58763;47.982;11.516;2022-07-10T13:04:09;3.10;;;1.45;;
71106;SDS011;58763;47.982;11.516;2022-07-10T13:06:35;4.28;;;1.60;;
71106;SDS011;58763;47.982;11.516;2022-07-10T13:09:02;2.70;;;1.23;;
71106;SDS011;58763;47.982;11.516;2022-07-10T13:11:43;3.15;;;1.48;;
71106;SDS011;58763;47.982;11.516;2022-07-10T13:14:08;3.15;;;1.10;;
71106;SDS011;58763;47.982;11.516;2022-07-10T13:16:34;3.05;;;0.90;;
71106;SDS011;58763;47.982;11.516;2022-07-10T13:18:59;2.80;;;1.20;;
71106;SDS011;58763;47.982;11.516;2022-07-10T13:21:24;3.40;;;1.20;;
71106;SDS011;58763;47.982;11.516;2022-07-10T13:23:50;3.53;;;1.05;;
71106;SDS011;58763;47.982;11.516;2022-07-10T13:26:15;4.03;;;1.10;;
71106;SDS011;58763;47.982;11.516;2022-07-10T13:28:41;3.17;;;1.33;;
71106;SDS011;58763;47.982;11.516;2022-07-10T13:31:06;3.65;;;1.17;;
71106;SDS011;58763;47.982;11.516;2022-07-10T13:33:33;2.97;;;1.00;;
71106;SDS011;58763;47.982;11.516;2022-07-10T13:35:59;3.22;;;1.20;;
71106;SDS011;58763;47.982;11.516;2022-07-10T13:38:26;2.97;;;1.15;;
71106;SDS011;58763;47.982;11.516;2022-07-10T13:40:51;4.72;;;1.20;;
71106;SDS011;58763;47.982;11.516;2022-07-10T13:43:16;2.47;;;1.00;;
71106;SDS011;58763;47.982;11.516;2022-07-10T13:45:42;4.00;;;1.08;;
71106;SDS011;58763;47.982;11.516;2022-07-10T13:48:13;3.25;;;1.20;;
71106;SDS011;58763;47.982;11.516;2022-07-10T13:50:40;2.10;;;0.90;;
71106;SDS011;58763;47.982;11.516;2022-07-10T13:53:07;5.10;;;1.10;;
71106;SDS011;58763;47.982;11.516;2022-07-10T13:55:33;4.40;;;1.17;;
71106;SDS011;58763;47.982;11.516;2022-07-10T13:57:59;3.45;;;1.10;;
71106;SDS011;58763;47.982;11.516;2022-07-10T14:00:25;4.65;;;1.10;;
71106;SDS011;58763;47.982;11.516;2022-07-10T14:02:51;3.40;;;1.10;;
71106;SDS011;58763;47.982;11.516;2022-07-10T14:05:16;1.92;;;0.98;;
71106;SDS011;58763;47.982;11.516;2022-07-10T14:07:42;4.13;;;1.00;;
71106;SDS011;58763;47.982;11.516;2022-07-10T14:10:07;2.78;;;1.00;;
71106;SDS011;58763;47.982;11.516;2022-07-10T14:12:33;2.67;;;0.80;;
71106;SDS011;58763;47.982;11.516;2022-07-10T14:14:59;2.78;;;0.93;;
71106;SDS011;58763;47.982;11.516;2022-07-10T14:17:25;2.92;;;1.10;;
71106;SDS011;58763;47.982;11.516;2022-07-10T14:19:51;4.40;;;1.20;;
71106;SDS011;58763;47.982;11.516;2022-07-10T14:22:16;4.47;;;1.10;;
71106;SDS011;58763;47.982;11.516;2022-07-10T14:24:42;3.67;;;1.00;;
71106;SDS011;58763;47.982;11.516;2022-07-10T14:27:08;2.92;;;1.00;;
71106;SDS011;58763;47.982;11.516;2022-07-10T14:29:33;2.85;;;1.10;;
71106;SDS011;58763;47.982;11.516;2022-07-10T14:31:59;1.92;;;0.90;;
71106;SDS011;58763;47.982;11.516;2022-07-10T14:34:24;2.88;;;1.05;;
71106;SDS011;58763;47.982;11.516;2022-07-10T14:36:50;3.10;;;0.95;;
71106;SDS011;58763;47.982;11.516;2022-07-10T14:39:16;5.57;;;1.40;;
71106;SDS011;58763;47.982;11.516;2022-07-10T14:41:41;4.72;;;0.90;;
71106;SDS011;58763;47.982;11.516;2022-07-10T14:44:07;3.00;;;0.95;;
71106;SDS011;58763;47.982;11.516;2022-07-10T14:46:33;3.65;;;1.00;;
71106;SDS011;58763;47.982;11.516;2022-07-10T14:48:58;3.15;;;0.93;;
71106;SDS011;58763;47.982;11.516;2022-07-10T14:51:24;2.70;;;0.90;;
71106;SDS011;58763;47.982;11.516;2022-07-10T14:53:50;3.00;;;1.08;;
71106;SDS011;58763;47.982;11.516;2022-07-10T14:56:15;2.80;;;0.90;;
71106;SDS011;58763;47.982;11.516;2022-07-10T14:58:45;4.60;;;1.02;;